Protection Island, Washington
Current Conditions -  °F | °C
As of 9:37 AM on Thursday 27 Nov 2014 (Local Time) from KNUW Reporting Station
Overcast Overcast  
Wind Chill: 58°   Ceiling: 2800
Heat Index: 58°   Visibility: 10mi
Dew Point: 51°   Wind: 12mph
Humidity: 78%   Direction: 150°SSE
Pressure: 29.78"   Gusts: NA
Location:  48.026°N, 122.859°W
Report Text: KNUW 271737Z AUTO 15010KT 10SM SCT011 OVC028 14/11 A2978 RMK AO2 T01440106 $
Loading
Personal Weather Stations






























Interactive Weather Map New forecast layout! Learn more

10-Day Weather Forecast

Advertisements
Track Severe Weather on mobile